createdAt,value
2023-07-02T00:01:29.822Z,16.9
2023-07-02T00:16:29.816Z,16.9
2023-07-02T00:31:29.760Z,17
2023-07-02T00:46:29.753Z,17
2023-07-02T01:01:29.795Z,16.7
2023-07-02T01:16:29.751Z,16.7
2023-07-02T01:31:29.692Z,16.7
2023-07-02T01:46:29.728Z,16.6
2023-07-02T02:01:29.631Z,16.7
2023-07-02T02:16:29.714Z,16.7
2023-07-02T02:31:29.604Z,16.7
2023-07-02T02:46:29.570Z,16.7
2023-07-02T03:01:29.527Z,16.6
2023-07-02T03:16:29.539Z,16.5
2023-07-02T03:31:29.540Z,16.4
2023-07-02T03:46:29.510Z,16.5
2023-07-02T04:01:29.407Z,16.6
2023-07-02T04:16:29.435Z,16.5
2023-07-02T04:31:29.432Z,16.6
2023-07-02T04:46:29.472Z,16.6
2023-07-02T05:01:29.364Z,16.8
2023-07-02T05:16:29.408Z,17
2023-07-02T05:31:29.278Z,17.1
2023-07-02T05:46:29.276Z,17.4
2023-07-02T06:01:29.240Z,17.4
2023-07-02T06:16:29.244Z,17.5
2023-07-02T06:31:29.204Z,17.6
2023-07-02T06:46:29.258Z,17.7
2023-07-02T07:01:29.183Z,18
2023-07-02T07:16:29.144Z,18.6
2023-07-02T07:31:29.099Z,20.1
2023-07-02T07:46:29.156Z,22.8
2023-07-02T08:01:29.133Z,24
2023-07-02T08:16:29.030Z,22.3
2023-07-02T08:31:29.052Z,23.5
2023-07-02T08:46:29.027Z,23.3
2023-07-02T09:01:28.970Z,23.3
2023-07-02T09:16:29.686Z,23.7
2023-07-02T09:31:28.951Z,23.7
2023-07-02T09:46:28.925Z,24.1
2023-07-02T10:01:28.843Z,24.5
2023-07-02T10:16:28.856Z,24.4
2023-07-02T10:31:28.814Z,23.7
2023-07-02T10:46:28.813Z,23.5
2023-07-02T11:01:28.766Z,23.7
2023-07-02T11:16:28.759Z,23.4
2023-07-02T11:31:31.055Z,22.9
2023-07-02T11:46:28.739Z,23.1
2023-07-02T12:01:28.615Z,23.5
2023-07-02T12:16:28.655Z,23.5
2023-07-02T12:31:28.625Z,23.9
2023-07-02T12:46:28.605Z,23.9
2023-07-02T13:01:28.564Z,23.9
2023-07-02T13:16:28.557Z,24
2023-07-02T13:31:28.469Z,24
2023-07-02T13:46:28.558Z,24.2
2023-07-02T14:01:28.450Z,24.5
2023-07-02T14:16:28.473Z,24.7
2023-07-02T14:31:28.371Z,25
2023-07-02T14:46:28.424Z,25.6
2023-07-02T15:01:28.335Z,25.5
2023-07-02T15:16:28.320Z,25.6
2023-07-02T15:31:28.270Z,25.5
2023-07-02T15:46:28.278Z,25.2
2023-07-02T16:01:28.163Z,24.9
2023-07-02T16:16:28.199Z,24.7
2023-07-02T16:31:28.141Z,24.5
2023-07-02T16:46:28.173Z,24.4
2023-07-02T17:01:28.140Z,24.3
2023-07-02T17:16:28.177Z,24.3
2023-07-02T17:31:28.107Z,24.3
2023-07-02T17:46:28.090Z,24.3
2023-07-02T18:01:28.095Z,24.2
2023-07-02T18:16:27.966Z,23.9
2023-07-02T18:31:27.945Z,23.7
2023-07-02T18:46:27.941Z,23.5
2023-07-02T19:01:27.905Z,23.3
2023-07-02T19:16:27.933Z,23.2
2023-07-02T19:31:27.866Z,23
2023-07-02T19:46:27.845Z,22.9
2023-07-02T20:01:27.780Z,23
2023-07-02T20:16:27.815Z,23
2023-07-02T20:31:27.836Z,22.9
2023-07-02T20:46:27.740Z,22.7
2023-07-02T21:01:27.682Z,22.6
2023-07-02T21:16:27.693Z,22.6
2023-07-02T21:31:27.635Z,22.5
2023-07-02T21:46:27.682Z,22.4
2023-07-02T22:01:27.597Z,22.2
2023-07-02T22:16:27.568Z,22
2023-07-02T22:31:27.522Z,21.8
2023-07-02T22:46:27.647Z,21.6
2023-07-02T23:01:27.435Z,21.5
2023-07-02T23:16:27.460Z,21.4
2023-07-02T23:31:27.622Z,21.3
2023-07-02T23:46:27.457Z,21.1
